Time;durP1;ratioP1;P1;durP2;ratioP2;P2;SDS_P1;SDS_P2;PMS_P1;PMS_P2;Temp;Humidity;BMP_temperature;BMP_pressure;BME280_temperature;BME280_humidity;BME280_pressure;Samples;Min_cycle;Max_cycle;Signal;HPM_P1;HPM_P2
2022/06/27 00:01:20;;;;;;;2.58;2.38;;;17.80;99.90;;;;;;5061017;28;20304;-90
2022/06/27 00:03:47;;;;;;;3.80;2.95;;;17.80;99.90;;;;;;5072692;28;20205;-90
2022/06/27 00:06:14;;;;;;;5.05;2.58;;;17.80;99.90;;;;;;5075474;28;20232;-86
2022/06/27 00:08:40;;;;;;;3.90;2.50;;;17.80;99.90;;;;;;5067635;28;20210;-89
2022/06/27 00:11:07;;;;;;;3.13;2.60;;;17.80;99.90;;;;;;5054662;28;20208;-90
2022/06/27 00:13:36;;;;;;;3.63;2.72;;;17.80;99.90;;;;;;5053023;28;20761;-85
2022/06/27 00:16:02;;;;;;;3.65;2.50;;;17.80;99.90;;;;;;5051902;28;20198;-90
2022/06/27 00:18:29;;;;;;;3.42;2.40;;;17.80;99.90;;;;;;5067117;28;20205;-78
2022/06/27 00:20:56;;;;;;;9.45;3.60;;;17.80;99.90;;;;;;5070355;28;20576;-87
2022/06/27 00:23:23;;;;;;;4.72;2.95;;;17.80;99.90;;;;;;5063104;28;20209;-89
2022/06/27 00:25:50;;;;;;;4.63;2.60;;;17.80;99.90;;;;;;5053017;28;20233;-89
2022/06/27 00:28:17;;;;;;;5.07;2.50;;;17.80;99.90;;;;;;5051427;28;20295;-85
2022/06/27 00:30:45;;;;;;;4.30;2.83;;;17.80;99.90;;;;;;5052543;28;20229;-85
2022/06/27 00:33:12;;;;;;;2.97;2.38;;;17.80;99.90;;;;;;5068149;28;20248;-89
2022/06/27 00:35:39;;;;;;;3.47;2.50;;;17.80;99.90;;;;;;5072110;28;20194;-88
2022/06/27 00:38:06;;;;;;;5.15;2.88;;;17.80;99.90;;;;;;5060915;28;20229;-88
2022/06/27 00:40:33;;;;;;;5.40;2.90;;;17.80;99.90;;;;;;5053181;28;20519;-89
2022/06/27 00:43:00;;;;;;;2.75;2.55;;;17.80;99.90;;;;;;5050624;28;20299;-89
2022/06/27 00:45:27;;;;;;;3.28;2.47;;;17.70;99.90;;;;;;5052152;28;20312;-89
2022/06/27 00:47:55;;;;;;;3.22;2.55;;;17.70;99.90;;;;;;5051404;28;20216;-90
2022/06/27 00:50:22;;;;;;;3.97;3.35;;;17.70;99.90;;;;;;5052643;28;20206;-89
2022/06/27 00:52:49;;;;;;;5.43;4.10;;;17.70;99.90;;;;;;5052885;28;20214;-90
2022/06/27 00:55:17;;;;;;;4.22;3.55;;;17.70;99.90;;;;;;5052230;28;20202;-84
2022/06/27 00:57:44;;;;;;;3.97;3.40;;;17.70;99.90;;;;;;5052400;28;20197;-90
2022/06/27 01:00:13;;;;;;;5.15;3.50;;;17.70;99.90;;;;;;5062099;28;20205;-90
2022/06/27 01:02:40;;;;;;;4.22;3.22;;;17.70;99.90;;;;;;5072209;28;20194;-87
2022/06/27 01:05:11;;;;;;;4.10;3.40;;;17.70;99.90;;;;;;5070715;28;20221;-77
2022/06/27 01:07:39;;;;;;;3.95;3.33;;;17.70;99.90;;;;;;5070914;28;20207;-86
2022/06/27 01:10:08;;;;;;;4.13;3.72;;;17.60;99.90;;;;;;5069702;28;20209;-88
2022/06/27 01:12:35;;;;;;;4.40;3.38;;;17.60;99.90;;;;;;5070012;28;20197;-90
2022/06/27 01:15:02;;;;;;;4.32;3.83;;;17.60;99.90;;;;;;5071826;28;20203;-89
2022/06/27 01:17:29;;;;;;;4.72;3.33;;;17.60;99.90;;;;;;5071088;28;20213;-78
2022/06/27 01:19:56;;;;;;;6.80;3.50;;;17.60;99.90;;;;;;5054458;28;20927;-90
2022/06/27 01:22:24;;;;;;;3.92;3.53;;;17.60;99.90;;;;;;5052765;28;20313;-90
2022/06/27 01:24:52;;;;;;;5.82;3.97;;;17.60;99.90;;;;;;5050593;28;20202;-85
2022/06/27 01:27:19;;;;;;;4.18;3.67;;;17.60;99.90;;;;;;5049889;28;20212;-90
2022/06/27 01:29:46;;;;;;;5.03;4.53;;;17.60;99.90;;;;;;5051288;28;20229;-81
2022/06/27 01:32:12;;;;;;;9.23;5.43;;;17.60;99.90;;;;;;5050361;28;20193;-85
2022/06/27 01:34:40;;;;;;;4.95;4.45;;;17.60;99.90;;;;;;5065139;28;20219;-91
2022/06/27 01:37:07;;;;;;;4.45;3.72;;;17.60;99.90;;;;;;5065836;28;20234;-82
2022/06/27 01:39:35;;;;;;;5.40;4.88;;;17.60;99.90;;;;;;5051393;28;20202;-92
2022/06/27 01:42:04;;;;;;;5.68;4.75;;;17.60;99.90;;;;;;5061124;28;20220;-90
2022/06/27 01:44:34;;;;;;;4.70;4.20;;;17.50;99.90;;;;;;5069925;28;20257;-80
2022/06/27 01:47:08;;;;;;;5.80;4.80;;;17.50;99.90;;;;;;5068769;28;20906;-92
2022/06/27 01:49:36;;;;;;;5.68;5.18;;;17.50;99.90;;;;;;5071142;28;20212;-89
2022/06/27 01:52:04;;;;;;;5.95;5.38;;;17.50;99.90;;;;;;5059210;28;20217;-90
2022/06/27 01:54:31;;;;;;;7.47;4.85;;;17.50;99.90;;;;;;5050359;28;20202;-79
2022/06/27 01:57:00;;;;;;;6.40;5.50;;;17.50;99.90;;;;;;5048053;28;20212;-85
2022/06/27 01:59:29;;;;;;;6.82;5.88;;;17.50;99.90;;;;;;5048954;28;20201;-91
2022/06/27 02:01:58;;;;;;;5.75;5.20;;;17.50;99.90;;;;;;5046065;28;20291;-91
2022/06/27 02:04:26;;;;;;;5.95;5.05;;;17.40;99.90;;;;;;5046589;28;20197;-81
2022/06/27 02:06:54;;;;;;;5.95;5.45;;;17.40;99.90;;;;;;5048333;28;20567;-86
2022/06/27 02:09:21;;;;;;;6.85;6.25;;;17.40;99.90;;;;;;5054946;28;20232;-88
2022/06/27 02:11:51;;;;;;;6.47;5.88;;;17.40;99.90;;;;;;5073979;28;20205;-84
2022/06/27 02:14:20;;;;;;;7.20;5.70;;;17.40;99.90;;;;;;5058385;28;20734;-90
2022/06/27 02:16:48;;;;;;;5.90;5.40;;;17.40;99.90;;;;;;5053578;28;20205;-92
2022/06/27 02:19:19;;;;;;;6.38;5.82;;;17.40;99.90;;;;;;5067318;28;20209;-89
2022/06/27 02:21:47;;;;;;;6.18;5.55;;;17.40;99.90;;;;;;5073046;28;20201;-91
2022/06/27 02:24:15;;;;;;;6.15;5.55;;;17.40;99.90;;;;;;5071949;28;20228;-90
2022/06/27 02:26:43;;;;;;;7.97;6.20;;;17.30;99.90;;;;;;5070543;28;20221;-90
2022/06/27 02:29:11;;;;;;;6.90;6.10;;;17.30;99.90;;;;;;5052173;28;20929;-86
2022/06/27 02:31:51;;;;;;;8.45;7.55;;;17.30;99.90;;;;;;5050665;28;20208;-90
2022/06/27 02:34:18;;;;;;;8.18;7.05;;;17.30;99.90;;;;;;5050514;28;20408;-88
2022/06/27 02:36:48;;;;;;;7.60;6.75;;;17.30;99.90;;;;;;5046826;28;20261;-88
2022/06/27 02:39:19;;;;;;;8.05;6.95;;;17.30;99.90;;;;;;5045947;28;20202;-81
2022/06/27 02:41:48;;;;;;;6.65;6.05;;;17.20;99.90;;;;;;5049479;28;20202;-80
2022/06/27 02:44:15;;;;;;;6.88;6.22;;;17.20;99.90;;;;;;5048905;28;20288;-84
2022/06/27 02:46:43;;;;;;;7.15;6.55;;;17.20;99.90;;;;;;5049243;28;20225;-89
2022/06/27 02:49:12;;;;;;;7.43;6.70;;;17.20;99.90;;;;;;5049040;28;20206;-91
2022/06/27 02:51:43;;;;;;;7.28;6.53;;;17.20;99.90;;;;;;5051461;28;20201;-82
2022/06/27 02:54:15;;;;;;;7.40;6.70;;;17.10;99.90;;;;;;5065704;28;20194;-90
2022/06/27 02:56:52;;;;;;;7.40;6.57;;;17.10;99.90;;;;;;5072284;28;20193;-91
2022/06/27 02:59:23;;;;;;;7.60;6.90;;;17.10;99.90;;;;;;5053318;28;20182;-90
2022/06/27 03:01:51;;;;;;;7.75;7.05;;;17.00;99.90;;;;;;5056279;28;20228;-90
2022/06/27 03:04:19;;;;;;;8.88;7.93;;;17.00;99.90;;;;;;5071929;28;20316;-91
2022/06/27 03:06:49;;;;;;;6.72;6.13;;;17.00;99.90;;;;;;5065022;28;20232;-91
2022/06/27 03:09:16;;;;;;;6.90;6.30;;;17.00;99.90;;;;;;5052969;28;20208;-91
2022/06/27 03:11:43;;;;;;;6.25;5.65;;;16.90;99.90;;;;;;5052390;28;20535;-81
2022/06/27 03:14:10;;;;;;;6.72;6.03;;;16.90;99.90;;;;;;5067509;28;20241;-91
2022/06/27 03:16:37;;;;;;;6.50;5.93;;;16.90;99.90;;;;;;5053205;28;20202;-91
2022/06/27 03:19:04;;;;;;;7.43;6.63;;;16.90;99.90;;;;;;5052309;28;20205;-91
2022/06/27 03:21:33;;;;;;;9.30;7.85;;;16.80;99.90;;;;;;5052813;28;20233;-83
2022/06/27 03:24:01;;;;;;;8.30;7.13;;;16.80;99.90;;;;;;5052175;28;20210;-77
2022/06/27 03:26:28;;;;;;;6.55;5.95;;;16.80;99.90;;;;;;5051965;28;20233;-90
2022/06/27 03:28:55;;;;;;;8.45;7.15;;;16.80;99.90;;;;;;5052949;28;20608;-91
2022/06/27 03:31:22;;;;;;;6.88;6.13;;;16.80;99.90;;;;;;5050434;28;20197;-89
2022/06/27 03:33:50;;;;;;;6.72;6.03;;;16.70;99.90;;;;;;5048963;28;20212;-89
2022/06/27 03:36:17;;;;;;;7.95;7.15;;;16.70;99.90;;;;;;5047627;28;20255;-90
2022/06/27 03:38:45;;;;;;;8.50;7.22;;;16.70;99.90;;;;;;5048509;28;20197;-79
2022/06/27 03:41:12;;;;;;;8.35;7.65;;;16.60;99.90;;;;;;5049870;28;20879;-88
2022/06/27 03:43:39;;;;;;;8.48;7.53;;;16.60;99.90;;;;;;5053383;28;20207;-83
2022/06/27 03:46:06;;;;;;;6.88;6.25;;;16.60;99.90;;;;;;5054567;28;20714;-85
2022/06/27 03:51:17;;;;;;;7.28;6.63;;;16.50;99.90;;;;;;5052711;28;20267;-88
2022/06/27 03:53:45;;;;;;;6.70;6.07;;;16.50;99.90;;;;;;5052239;28;20234;-83
2022/06/27 03:56:12;;;;;;;5.90;5.40;;;16.50;99.90;;;;;;5053169;28;20194;-90
2022/06/27 03:58:39;;;;;;;7.53;6.70;;;16.50;99.90;;;;;;5053114;28;20206;-88
2022/06/27 04:01:06;;;;;;;6.55;5.43;;;16.40;99.90;;;;;;5053188;28;20487;-86
2022/06/27 04:03:35;;;;;;;6.95;6.20;;;16.40;99.90;;;;;;5053274;28;20204;-90
2022/06/27 04:06:02;;;;;;;7.45;6.57;;;16.40;99.90;;;;;;5051915;28;20226;-82
2022/06/27 04:08:28;;;;;;;7.97;7.22;;;16.40;99.90;;;;;;5051827;28;20202;-90
2022/06/27 04:10:57;;;;;;;7.13;6.53;;;16.40;99.90;;;;;;5051809;28;20206;-90
2022/06/27 04:13:24;;;;;;;7.43;6.72;;;16.40;99.90;;;;;;5053002;28;20245;-86
2022/06/27 04:15:50;;;;;;;8.07;7.28;;;16.40;99.90;;;;;;5052206;28;20289;-89
2022/06/27 04:18:17;;;;;;;7.82;7.20;;;16.50;99.90;;;;;;5052385;28;20675;-89
2022/06/27 04:20:44;;;;;;;8.05;7.18;;;16.50;99.90;;;;;;5057290;28;20316;-90
2022/06/27 04:23:12;;;;;;;8.63;7.68;;;16.50;99.90;;;;;;5071185;28;20216;-84
2022/06/27 04:25:39;;;;;;;9.38;7.32;;;16.60;99.90;;;;;;5071806;28;20308;-88
2022/06/27 04:28:07;;;;;;;8.07;7.28;;;16.70;99.90;;;;;;5057003;28;20206;-84
2022/06/27 04:30:35;;;;;;;8.18;7.10;;;16.80;99.90;;;;;;5063962;28;20320;-90
2022/06/27 04:33:03;;;;;;;9.30;7.65;;;16.90;99.90;;;;;;5066836;28;20208;-86
2022/06/27 04:35:30;;;;;;;7.93;7.13;;;17.00;99.90;;;;;;5049077;28;20523;-87
2022/06/27 04:37:57;;;;;;;7.53;6.38;;;17.10;99.90;;;;;;5049104;28;20234;-89
2022/06/27 04:40:25;;;;;;;6.72;6.13;;;17.20;99.90;;;;;;5048673;28;20202;-87
2022/06/27 04:42:53;;;;;;;7.03;6.32;;;17.20;99.90;;;;;;5050384;28;20293;-81
2022/06/27 04:45:21;;;;;;;6.70;5.97;;;17.20;99.90;;;;;;5050568;28;20198;-80
2022/06/27 04:47:48;;;;;;;7.43;6.40;;;17.20;99.90;;;;;;5048679;28;20739;-87
2022/06/27 04:50:18;;;;;;;6.97;5.22;;;17.20;99.90;;;;;;5050536;28;20232;-81
2022/06/27 04:52:46;;;;;;;7.28;5.95;;;17.20;99.90;;;;;;5049968;28;20198;-86
2022/06/27 04:55:13;;;;;;;7.75;6.88;;;17.20;99.90;;;;;;5049101;28;20298;-86
2022/06/27 04:57:43;;;;;;;5.97;5.38;;;17.30;99.90;;;;;;5049293;28;20259;-87
2022/06/27 05:00:12;;;;;;;7.40;5.70;;;17.30;99.90;;;;;;5050138;28;20204;-88
2022/06/27 05:02:41;;;;;;;7.82;6.25;;;17.40;99.90;;;;;;5051166;28;20197;-84
2022/06/27 05:05:09;;;;;;;6.85;5.80;;;17.50;99.90;;;;;;5049480;28;20209;-85
2022/06/27 05:07:36;;;;;;;6.30;5.32;;;17.60;99.90;;;;;;5049383;28;20583;-85
2022/06/27 05:10:04;;;;;;;6.18;5.50;;;17.60;99.90;;;;;;5050753;28;20212;-80
2022/06/27 05:12:31;;;;;;;6.95;5.75;;;17.70;99.90;;;;;;5050574;28;20193;-85
2022/06/27 05:14:58;;;;;;;7.50;6.68;;;17.80;99.90;;;;;;5061285;28;20219;-86
2022/06/27 05:17:25;;;;;;;8.20;6.43;;;17.80;99.90;;;;;;5069659;28;20201;-88
2022/06/27 05:19:53;;;;;;;7.88;6.05;;;17.90;99.90;;;;;;5071615;28;20197;-85
2022/06/27 05:22:21;;;;;;;8.25;5.60;;;18.10;99.90;;;;;;5071891;28;20270;-87
2022/06/27 05:24:49;;;;;;;7.68;6.78;;;18.30;99.90;;;;;;5059247;28;20590;-87
2022/06/27 05:27:17;;;;;;;6.47;5.50;;;18.40;99.90;;;;;;5050910;28;20228;-87
2022/06/27 05:29:44;;;;;;;5.25;4.75;;;18.50;99.90;;;;;;5051430;28;20213;-86
2022/06/27 05:32:11;;;;;;;6.90;5.60;;;18.70;99.90;;;;;;5050354;28;20205;-88
2022/06/27 05:34:39;;;;;;;8.77;6.13;;;18.90;99.90;;;;;;5050550;28;20212;-88
2022/06/27 05:37:07;;;;;;;8.52;6.50;;;19.40;99.90;;;;;;5049462;28;20336;-86
2022/06/27 05:39:35;;;;;;;7.53;6.13;;;19.90;99.90;;;;;;5050089;28;20217;-86
2022/06/27 05:42:03;;;;;;;7.97;5.63;;;20.40;99.90;;;;;;5051209;28;20214;-87
2022/06/27 05:44:30;;;;;;;8.45;6.55;;;20.60;99.90;;;;;;5050618;28;20206;-79
2022/06/27 05:46:58;;;;;;;7.57;5.07;;;20.60;99.90;;;;;;5050054;28;20253;-87
2022/06/27 05:49:25;;;;;;;6.90;4.55;;;20.50;99.90;;;;;;5059207;28;20209;-86
2022/06/27 05:51:57;;;;;;;5.07;4.10;;;20.20;99.90;;;;;;5071048;28;20236;-86
2022/06/27 05:54:25;;;;;;;4.57;4.05;;;20.10;99.90;;;;;;5070128;28;20204;-86
2022/06/27 05:56:53;;;;;;;9.82;5.13;;;20.00;99.90;;;;;;5070411;28;20600;-85
2022/06/27 05:59:21;;;;;;;7.20;4.72;;;19.90;99.90;;;;;;5068345;28;20205;-82
2022/06/27 06:01:50;;;;;;;6.57;5.38;;;19.70;99.90;;;;;;5069100;28;20292;-84
2022/06/27 06:04:17;;;;;;;6.05;4.60;;;19.60;99.90;;;;;;5068481;28;20723;-85
2022/06/27 06:06:44;;;;;;;5.55;4.03;;;19.50;99.90;;;;;;5069786;28;20225;-88
2022/06/27 06:09:13;;;;;;;5.07;3.67;;;19.50;99.90;;;;;;5049181;28;20286;-83
2022/06/27 06:11:42;;;;;;;4.35;3.58;;;19.40;99.90;;;;;;5048394;28;20198;-84
2022/06/27 06:14:11;;;;;;;5.15;3.30;;;19.40;99.90;;;;;;5048914;28;20624;-85
2022/06/27 06:16:38;;;;;;;4.13;3.53;;;19.40;99.90;;;;;;5049671;28;20201;-88
2022/06/27 06:19:05;;;;;;;6.03;4.15;;;19.40;99.90;;;;;;5069019;28;20275;-88
2022/06/27 06:21:32;;;;;;;5.10;3.90;;;19.40;99.90;;;;;;5068480;28;20212;-85
2022/06/27 06:23:59;;;;;;;7.07;4.05;;;19.40;99.90;;;;;;5070096;28;20307;-78
2022/06/27 06:26:26;;;;;;;4.65;3.40;;;19.50;99.90;;;;;;5071630;28;20597;-80
2022/06/27 06:28:55;;;;;;;5.40;4.47;;;19.50;99.90;;;;;;5073482;28;20209;-88
2022/06/27 06:31:22;;;;;;;7.32;5.07;;;19.50;99.90;;;;;;5056473;28;20210;-83
2022/06/27 06:33:50;;;;;;;8.07;5.68;;;19.60;99.90;;;;;;5053666;28;20201;-81
2022/06/27 06:36:19;;;;;;;5.35;4.50;;;19.60;99.90;;;;;;5047718;28;20205;-87
2022/06/27 06:38:47;;;;;;;5.85;3.85;;;19.60;99.90;;;;;;5074456;28;20201;-82
2022/06/27 06:41:15;;;;;;;7.85;4.85;;;19.70;99.90;;;;;;5074049;28;20201;-84
2022/06/27 06:43:42;;;;;;;4.53;3.65;;;19.70;99.90;;;;;;5069210;28;20198;-87
2022/06/27 06:46:11;;;;;;;5.03;3.63;;;19.80;99.90;;;;;;5053780;28;20194;-87
2022/06/27 06:48:40;;;;;;;5.05;4.18;;;19.80;99.90;;;;;;5053486;28;20222;-84
2022/06/27 06:51:07;;;;;;;8.40;5.05;;;19.90;99.90;;;;;;5052161;28;20652;-82
2022/06/27 06:53:36;;;;;;;5.40;4.45;;;19.90;99.90;;;;;;5050737;28;20580;-85
2022/06/27 06:56:04;;;;;;;6.10;5.10;;;20.00;99.90;;;;;;5050302;28;20304;-85
2022/06/27 06:58:31;;;;;;;6.85;4.60;;;20.00;99.90;;;;;;5057544;28;20513;-87
2022/06/27 07:00:58;;;;;;;7.13;4.70;;;20.10;99.90;;;;;;5073598;28;20215;-88
2022/06/27 07:03:27;;;;;;;9.82;5.00;;;20.20;99.90;;;;;;5061111;28;20198;-87
2022/06/27 07:05:56;;;;;;;8.52;4.60;;;20.20;99.90;;;;;;5053410;28;20202;-87
2022/06/27 07:08:23;;;;;;;11.32;5.22;;;20.20;99.90;;;;;;5065005;28;20232;-87
2022/06/27 07:10:51;;;;;;;6.45;3.53;;;20.20;99.90;;;;;;5071297;28;20208;-87
2022/06/27 07:13:19;;;;;;;4.90;4.32;;;20.20;99.90;;;;;;5059878;28;20235;-87
2022/06/27 07:15:46;;;;;;;5.93;4.15;;;20.20;99.90;;;;;;5054284;28;20200;-89
2022/06/27 07:18:13;;;;;;;5.15;3.15;;;20.20;99.90;;;;;;5071292;28;20394;-82
2022/06/27 07:20:41;;;;;;;3.78;3.00;;;20.20;99.90;;;;;;5068167;28;20220;-88
2022/06/27 07:23:09;;;;;;;4.55;3.40;;;20.20;99.90;;;;;;5073263;28;20232;-88
2022/06/27 07:25:36;;;;;;;3.97;2.67;;;20.20;99.90;;;;;;5072523;28;20259;-89
2022/06/27 07:28:04;;;;;;;6.45;3.47;;;20.20;99.90;;;;;;5091798;22;21042;-86
2022/06/27 07:30:31;;;;;;;4.05;2.70;;;20.20;99.90;;;;;;5090858;28;20213;-88
2022/06/27 07:32:58;;;;;;;3.83;2.80;;;20.20;99.90;;;;;;5091616;28;20567;-90
2022/06/27 07:35:27;;;;;;;8.52;4.68;;;20.20;99.90;;;;;;5091244;28;20612;-88
2022/06/27 07:37:55;;;;;;;5.95;3.63;;;20.10;99.90;;;;;;5090906;28;20266;-90
2022/06/27 07:40:29;;;;;;;3.30;2.50;;;20.20;99.90;;;;;;5093177;28;20209;-87
2022/06/27 07:42:56;;;;;;;7.07;3.95;;;20.20;99.90;;;;;;5090624;28;20240;-82
2022/06/27 07:45:25;;;;;;;5.00;3.53;;;20.20;99.90;;;;;;5093692;28;20292;-90
2022/06/27 07:47:54;;;;;;;10.05;6.70;;;20.30;99.90;;;;;;5090320;28;20232;-90
2022/06/27 07:50:40;;;;;;;8.02;6.18;;;20.20;99.90;;;;;;5088006;28;20314;-88
2022/06/27 07:53:14;;;;;;;9.20;5.95;;;20.20;99.90;;;;;;5094065;28;20248;-89
2022/06/27 07:55:41;;;;;;;7.53;4.85;;;20.20;99.90;;;;;;5088207;28;20215;-91
2022/06/27 07:58:09;;;;;;;6.60;5.40;;;20.20;99.90;;;;;;5087276;28;20200;-91
2022/06/27 08:00:36;;;;;;;6.68;4.20;;;20.30;99.90;;;;;;5088841;28;20266;-90
2022/06/27 08:03:36;;;;;;;6.65;5.95;;;20.40;99.90;;;;;;5087806;28;20207;-91
2022/06/27 08:05:53;;;;;;;7.78;6.03;;;20.40;99.90;;;;;;5088008;28;20223;-91
2022/06/27 08:08:23;;;;;;;8.05;5.40;;;20.40;99.90;;;;;;5086065;28;20228;-91
2022/06/27 08:10:50;;;;;;;6.55;4.40;;;20.50;99.90;;;;;;5087951;28;20228;-83
2022/06/27 08:13:17;;;;;;;6.97;4.43;;;20.50;99.90;;;;;;5085566;28;20224;-90
2022/06/27 08:15:46;;;;;;;5.90;4.90;;;20.60;99.90;;;;;;5085995;28;20212;-89
2022/06/27 08:18:13;;;;;;;6.20;4.20;;;20.60;99.90;;;;;;5090030;28;20560;-89
2022/06/27 08:20:42;;;;;;;6.53;3.83;;;20.60;99.90;;;;;;5090816;28;20201;-88
2022/06/27 08:23:11;;;;;;;6.45;5.07;;;20.70;99.90;;;;;;5090201;28;20189;-89
2022/06/27 08:25:41;;;;;;;4.78;4.15;;;20.70;99.90;;;;;;5088873;28;20616;-88
2022/06/27 08:28:10;;;;;;;6.25;4.07;;;20.80;99.90;;;;;;5091048;28;20948;-88
2022/06/27 08:30:38;;;;;;;5.15;3.80;;;20.90;99.90;;;;;;5086899;28;20266;-90
2022/06/27 08:33:05;;;;;;;5.90;4.07;;;20.90;99.90;;;;;;5090890;28;20209;-85
2022/06/27 08:35:32;;;;;;;4.85;3.55;;;21.00;99.90;;;;;;5075501;28;20216;-90
2022/06/27 08:38:00;;;;;;;5.03;3.33;;;21.00;99.90;;;;;;5071343;28;20541;-84
2022/06/27 08:40:28;;;;;;;5.53;3.30;;;21.00;99.90;;;;;;5072286;28;20198;-91
2022/06/27 08:42:57;;;;;;;5.35;2.85;;;21.00;99.90;;;;;;5071768;28;20208;-91
2022/06/27 08:45:25;;;;;;;4.20;3.05;;;21.00;99.90;;;;;;5071990;28;20295;-91
2022/06/27 08:47:54;;;;;;;5.72;3.25;;;21.00;99.90;;;;;;5071429;28;20225;-83
2022/06/27 08:50:22;;;;;;;5.82;3.85;;;21.10;99.90;;;;;;5075957;28;20204;-84
2022/06/27 08:52:51;;;;;;;4.40;3.83;;;21.20;99.90;;;;;;5091000;28;20215;-87
2022/06/27 08:55:18;;;;;;;4.85;3.35;;;21.40;99.90;;;;;;5089991;28;20205;-89
2022/06/27 08:57:45;;;;;;;6.70;3.75;;;21.50;99.90;;;;;;5089301;28;20810;-86
2022/06/27 09:00:17;;;;;;;3.92;3.13;;;21.60;99.90;;;;;;5086876;28;20465;-86
2022/06/27 09:02:44;;;;;;;5.25;3.45;;;21.60;99.90;;;;;;5081328;28;20237;-83
2022/06/27 09:05:21;;;;;;;6.57;3.03;;;21.70;99.90;;;;;;5066932;28;20211;-81
2022/06/27 09:07:52;;;;;;;10.00;4.68;;;21.70;99.90;;;;;;5069261;28;20768;-86
2022/06/27 09:10:27;;;;;;;6.15;3.95;;;21.80;99.90;;;;;;5068436;28;20212;-79
2022/06/27 09:12:56;;;;;;;6.03;3.90;;;21.80;99.90;;;;;;5069271;28;20225;-87
2022/06/27 09:15:26;;;;;;;5.63;3.40;;;21.90;99.90;;;;;;5076128;28;20315;-88
2022/06/27 09:18:01;;;;;;;6.20;3.45;;;21.80;99.90;;;;;;5088914;28;20199;-79
2022/06/27 09:20:45;;;;;;;5.57;3.60;;;21.90;99.90;;;;;;5089462;28;20207;-88
2022/06/27 09:23:38;;;;;;;6.25;4.38;;;21.90;99.90;;;;;;5088411;28;20587;-82
2022/06/27 09:26:08;;;;;;;9.07;5.07;;;21.90;99.90;;;;;;5071348;28;20219;-82
2022/06/27 09:28:39;;;;;;;7.53;4.80;;;21.90;99.90;;;;;;5067698;28;20327;-90
2022/06/27 09:31:10;;;;;;;6.63;4.07;;;21.80;99.90;;;;;;5087295;28;20212;-84
2022/06/27 09:33:38;;;;;;;8.38;4.63;;;21.80;99.90;;;;;;5088600;28;20224;-82
2022/06/27 09:36:13;;;;;;;10.85;3.90;;;21.80;99.90;;;;;;5087262;28;20212;-85
2022/06/27 09:38:45;;;;;;;6.88;3.63;;;21.60;99.90;;;;;;5083526;28;20203;-86
2022/06/27 09:41:14;;;;;;;8.95;3.53;;;21.50;99.90;;;;;;5068844;28;20447;-91
2022/06/27 09:43:46;;;;;;;4.95;2.83;;;21.40;99.90;;;;;;5068719;28;20213;-84
2022/06/27 09:46:17;;;;;;;2.60;2.40;;;21.50;99.90;;;;;;5069939;28;20204;-90
2022/06/27 09:48:46;;;;;;;7.88;4.15;;;21.50;99.90;;;;;;5070280;28;20217;-82
2022/06/27 09:51:15;;;;;;;4.50;3.25;;;21.60;99.90;;;;;;5090330;28;20210;-88
2022/06/27 09:53:47;;;;;;;9.50;4.70;;;21.70;99.90;;;;;;5080148;28;20215;-87
2022/06/27 09:56:16;;;;;;;3.38;2.53;;;21.70;99.90;;;;;;5070456;28;20800;-89
2022/06/27 09:58:45;;;;;;;5.75;3.13;;;21.80;99.90;;;;;;5070122;28;20617;-90
2022/06/27 10:01:14;;;;;;;4.88;3.40;;;21.90;99.90;;;;;;5073278;28;20471;-91
2022/06/27 10:03:42;;;;;;;3.80;2.80;;;21.80;99.90;;;;;;5074506;28;20577;-89
2022/06/27 10:06:10;;;;;;;4.20;2.97;;;21.80;99.90;;;;;;5072161;28;20522;-87
2022/06/27 10:08:38;;;;;;;5.97;3.17;;;21.70;99.90;;;;;;5087678;28;20220;-88
2022/06/27 10:11:08;;;;;;;3.40;2.47;;;21.60;99.90;;;;;;5088733;28;20201;-89
2022/06/27 10:13:36;;;;;;;4.05;2.60;;;21.60;99.90;;;;;;5073625;28;20228;-83
2022/06/27 10:16:10;;;;;;;3.25;2.60;;;21.60;99.90;;;;;;5077728;28;20257;-83
2022/06/27 10:19:05;;;;;;;4.45;3.03;;;21.60;99.90;;;;;;5090258;28;20203;-89
2022/06/27 10:21:33;;;;;;;4.18;2.80;;;21.60;99.90;;;;;;5089733;28;20211;-89
2022/06/27 10:24:35;;;;;;;3.65;2.15;;;21.60;99.90;;;;;;5092443;28;20305;-87
2022/06/27 10:27:07;;;;;;;3.03;2.08;;;21.70;99.90;;;;;;5091072;28;20263;-88
2022/06/27 10:29:42;;;;;;;5.55;3.50;;;21.80;99.90;;;;;;5089934;28;20236;-89
2022/06/27 10:32:44;;;;;;;3.55;2.53;;;21.90;99.90;;;;;;5089996;28;20226;-88
2022/06/27 10:35:24;;;;;;;5.25;2.63;;;22.00;99.90;;;;;;5089059;28;20797;-86
2022/06/27 10:37:51;;;;;;;5.95;3.55;;;22.10;99.90;;;;;;5092159;28;20208;-87
2022/06/27 10:40:51;;;;;;;6.85;4.07;;;22.00;99.90;;;;;;5091026;28;20244;-86
2022/06/27 10:43:46;;;;;;;8.18;4.20;;;22.00;99.90;;;;;;5088347;28;20227;-87
2022/06/27 10:46:44;;;;;;;8.85;4.00;;;21.90;99.90;;;;;;5089452;28;20208;-87
2022/06/27 10:49:27;;;;;;;6.10;3.70;;;21.80;99.90;;;;;;5086815;28;20579;-84
2022/06/27 10:52:27;;;;;;;6.03;3.17;;;21.70;99.90;;;;;;5084786;28;20209;-80
2022/06/27 10:54:54;;;;;;;5.15;3.58;;;21.80;99.90;;;;;;5087877;28;20284;-85
2022/06/27 10:57:38;;;;;;;6.90;4.22;;;21.90;99.90;;;;;;5089263;28;20219;-83
2022/06/27 11:00:07;;;;;;;5.88;4.72;;;22.00;99.90;;;;;;5086171;28;20626;-82
2022/06/27 11:02:36;;;;;;;4.90;4.07;;;22.10;99.90;;;;;;5089406;28;20300;-88
2022/06/27 11:05:04;;;;;;;5.38;3.30;;;22.10;99.90;;;;;;5090086;28;20213;-88
2022/06/27 11:07:33;;;;;;;9.02;3.63;;;22.10;99.90;;;;;;5090648;28;20236;-88
2022/06/27 11:10:01;;;;;;;4.15;3.15;;;22.10;99.90;;;;;;5090429;28;20713;-91
2022/06/27 11:12:30;;;;;;;4.22;2.63;;;22.10;99.90;;;;;;5085594;28;20254;-88
2022/06/27 11:14:59;;;;;;;3.65;2.85;;;22.10;99.90;;;;;;5086557;28;20213;-82
2022/06/27 11:17:48;;;;;;;5.07;2.92;;;22.00;99.90;;;;;;5089556;28;20259;-88
2022/06/27 11:20:21;;;;;;;6.05;3.38;;;22.00;99.90;;;;;;5087444;28;20292;-85
2022/06/27 11:22:54;;;;;;;4.88;3.38;;;22.00;99.90;;;;;;5089550;28;20883;-79
2022/06/27 11:25:22;;;;;;;7.82;4.07;;;21.90;99.90;;;;;;5090139;28;20291;-88
2022/06/27 11:27:51;;;;;;;6.05;3.38;;;21.80;99.90;;;;;;5087854;28;20240;-87
2022/06/27 11:33:21;;;;;;;7.50;4.32;;;21.80;99.90;;;;;;5088258;28;20922;-79
2022/06/27 11:35:49;;;;;;;8.55;4.15;;;21.70;99.90;;;;;;5088130;28;20216;-85
2022/06/27 11:38:31;;;;;;;3.70;2.35;;;21.60;99.90;;;;;;5087787;28;20213;-79
2022/06/27 11:41:02;;;;;;;5.05;3.00;;;21.60;99.90;;;;;;5085242;28;20513;-87
2022/06/27 11:43:58;;;;;;;4.85;2.95;;;21.60;99.90;;;;;;5091845;28;20858;-86
2022/06/27 11:46:31;;;;;;;6.22;2.72;;;21.70;99.90;;;;;;5088969;28;20213;-83
2022/06/27 11:49:04;;;;;;;4.50;2.70;;;21.80;99.90;;;;;;5084979;28;20271;-80
2022/06/27 11:51:34;;;;;;;7.90;4.15;;;21.90;99.90;;;;;;5086585;28;20211;-89
2022/06/27 11:54:05;;;;;;;6.85;3.67;;;21.90;99.90;;;;;;5087243;28;20588;-83
2022/06/27 11:56:35;;;;;;;4.70;2.75;;;21.90;99.90;;;;;;5087077;28;20209;-81
2022/06/27 11:59:04;;;;;;;7.10;3.30;;;22.00;99.90;;;;;;5093631;28;20257;-82
2022/06/27 12:01:31;;;;;;;3.97;2.42;;;22.10;99.90;;;;;;5095661;28;20276;-80
2022/06/27 12:04:12;;;;;;;4.15;2.50;;;22.10;99.90;;;;;;5094320;28;20219;-84
2022/06/27 12:06:47;;;;;;;6.65;3.47;;;22.20;99.90;;;;;;5087185;28;20212;-82
2022/06/27 12:09:18;;;;;;;5.35;4.07;;;22.10;99.90;;;;;;5089962;28;20227;-87
2022/06/27 12:11:58;;;;;;;9.23;4.38;;;22.10;99.90;;;;;;5091158;28;20300;-86
2022/06/27 12:14:26;;;;;;;8.18;3.53;;;22.10;99.90;;;;;;5087926;28;20341;-84
2022/06/27 12:16:56;;;;;;;17.52;8.32;;;22.00;99.90;;;;;;5088992;28;20208;-78
2022/06/27 12:19:23;;;;;;;19.73;9.90;;;21.90;99.90;;;;;;5077528;28;20725;-83
2022/06/27 12:21:52;;;;;;;14.13;6.32;;;21.90;99.90;;;;;;5087088;28;20208;-81
2022/06/27 12:24:21;;;;;;;11.45;5.82;;;21.80;99.90;;;;;;5086052;28;20697;-85
2022/06/27 12:26:48;;;;;;;7.20;4.75;;;21.80;99.90;;;;;;5084600;28;20220;-84
2022/06/27 12:29:15;;;;;;;4.80;3.85;;;21.70;99.90;;;;;;5092067;28;20315;-88
2022/06/27 12:31:42;;;;;;;9.85;4.50;;;21.70;99.90;;;;;;5088215;28;20240;-79
2022/06/27 12:34:10;;;;;;;5.53;3.58;;;21.60;99.90;;;;;;5089678;28;20204;-81
2022/06/27 12:36:37;;;;;;;7.72;4.72;;;21.50;99.90;;;;;;5087825;28;20227;-87
2022/06/27 12:39:06;;;;;;;8.38;3.80;;;21.50;99.90;;;;;;5099105;28;20254;-87
2022/06/27 12:41:35;;;;;;;8.38;4.93;;;21.50;99.90;;;;;;5094258;28;20299;-89
2022/06/27 12:44:02;;;;;;;7.45;5.32;;;21.60;99.90;;;;;;5091987;28;20209;-76
2022/06/27 12:46:31;;;;;;;7.57;5.03;;;21.60;99.90;;;;;;5078936;28;20858;-93
2022/06/27 12:48:58;;;;;;;6.47;5.40;;;21.70;99.90;;;;;;5087517;28;20229;-94
2022/06/27 12:51:29;;;;;;;10.50;5.85;;;21.70;99.90;;;;;;5089304;28;20587;-90
2022/06/27 12:53:57;;;;;;;9.82;6.00;;;21.60;99.90;;;;;;5089501;28;20281;-89
2022/06/27 12:56:25;;;;;;;15.75;6.80;;;21.50;99.90;;;;;;5090225;28;20293;-91
2022/06/27 12:58:54;;;;;;;8.77;6.80;;;21.50;99.90;;;;;;5089561;28;20624;-94
2022/06/27 13:01:22;;;;;;;14.32;9.27;;;21.40;99.90;;;;;;5088718;28;20227;-89
2022/06/27 13:03:51;;;;;;;12.82;10.45;;;21.30;99.90;;;;;;5086162;28;20373;-86